Ce_breeze — ELSQ7 — position and weather

sailwx.info

Track history (hours):
 
Tides and Currents Weather Stations Pressure Air Temp Water Temp Dewpoint Dewpoint Depression Visibility Wind Speed Wind Dir Waves Ship Positions

Ce_breeze

Last reported at 2015-Jul-30 10:25 UTC. Time now 2015-Jul-31 19:30 UTC.
Position N 42°56' E 033°19'.

Length 240 m; draft 12.7 m.

Type: Tanker. MMSI: 636010400.

Date/timePositionNaut miles runAvg speedWind from/ knotsBaromVisibWave heightAir tempDewpointWater temp
2015-Jul-30 10:25N 42°56' E 033°19'4611.9
2015-Jul-30 06:33N 43°17' E 034°16'1212.1
2015-Jul-30 05:33N 43°22' E 034°31'1212.2
2015-Jul-30 04:33N 43°28' E 034°45'1212.3
2015-Jul-30 03:33N 43°33' E 035°01'1212.4
2015-Jul-30 02:33N 43°39' E 035°16'1111.3
2015-Jul-30 01:33N 43°44' E 035°30'1111.2
2015-Jul-30 00:33N 43°48' E 035°44'9 9.3
2015-Jul-29 23:33N 43°52' E 035°56'1 1.1
2015-Jul-29 22:33N 43°52' E 035°57'1 0.8
2015-Jul-29 21:14N 43°53' E 035°59'1 0.8
2015-Jul-29 20:28N 43°53' E 035°59'1 0.7
2015-Jul-29 19:33N 43°54' E 035°60'1 0.6
2015-Jul-29 18:33N 43°54' E 036°00'0 0.5
2015-Jul-29 17:33N 43°55' E 036°01'0 0.3
2015-Jul-29 16:33N 43°55' E 036°01'0 0.3
2015-Jul-29 15:33N 43°55' E 036°01'0 0.2
2015-Jul-29 14:33N 43°56' E 036°01'14 6.5
2015-Jul-29 12:26N 44°02' E 036°18'1311.9
2015-Jul-29 11:19N 44°08' E 036°34'911.9
2015-Jul-29 10:33N 44°12' E 036°46'1212.0
2015-Jul-29 09:33N 44°17' E 037°01'1211.7
2015-Jul-29 08:34N 44°23' E 037°15'1111.4
2015-Jul-29 07:34N 44°28' E 037°29'1111.3
2015-Jul-29 06:34N 44°33' E 037°43'8 8.4
2015-Jul-29 05:34N 44°40' E 037°51'3 2.7
2015-Jul-29 04:34N 44°42' E 037°50'0 0.0
2015-Jul-29 03:31N 44°42' E 037°50'0 0.0
2015-Jul-29 02:31N 44°42' E 037°50'0 0.0
2015-Jul-29 01:31N 44°42' E 037°50'0 0.0
2015-Jul-29 00:31N 44°42' E 037°50'0 0.0
2015-Jul-28 23:31N 44°42' E 037°50'0 0.0
2015-Jul-28 22:31N 44°42' E 037°50'0 0.0
2015-Jul-28 21:31N 44°42' E 037°50'0 0.0
2015-Jul-28 20:25N 44°42' E 037°50'0 0.0
2015-Jul-28 19:31N 44°42' E 037°50'0 0.0
2015-Jul-28 18:31N 44°42' E 037°50'0 0.0
2015-Jul-28 17:31N 44°42' E 037°50'0 0.0
2015-Jul-28 16:31N 44°42' E 037°50'0 0.0
2015-Jul-28 15:31N 44°42' E 037°50'0 0.0
2015-Jul-28 14:31N 44°42' E 037°50'0 0.0
2015-Jul-28 13:31N 44°42' E 037°50'0 0.0
2015-Jul-28 12:31N 44°42' E 037°50'0 0.0
2015-Jul-28 11:31N 44°42' E 037°50'0 0.0
2015-Jul-28 10:31N 44°42' E 037°50'0 0.0
2015-Jul-28 09:31N 44°42' E 037°50'0 0.0
2015-Jul-28 08:28N 44°42' E 037°50'0 0.0
2015-Jul-28 07:28N 44°42' E 037°50'0 0.0
2015-Jul-28 06:28N 44°42' E 037°50'0 0.0
2015-Jul-28 05:31N 44°42' E 037°50'0 0.0
2015-Jul-28 04:33N 44°42' E 037°50'5 5.0
2015-Jul-28 03:33N 44°38' E 037°52'8 8.3
2015-Jul-28 02:33N 44°31' E 037°44'10 9.8
2015-Jul-28 01:32N 44°26' E 037°32'1212.5
2015-Jul-28 00:33N 44°20' E 037°17'1312.8
2015-Jul-27 23:33N 44°14' E 037°01'1312.7
2015-Jul-27 22:34N 44°08' E 036°46'1412.5
2015-Jul-27 21:27N 44°02' E 036°28'1112.0
2015-Jul-27 20:33N 44°02' E 036°14'1211.8
2015-Jul-27 19:33N 44°02' E 035°57'7 7.4
2015-Jul-27 18:33N 44°02' E 035°47'11 3.6
2015-Jul-27 15:33N 44°02' E 035°32'1312.8
2015-Jul-27 14:33N 44°02' E 035°14'1312.6
2015-Jul-27 13:33N 44°02' E 034°57'1212.4
2015-Jul-27 12:33N 44°02' E 034°39'1312.7
2015-Jul-27 11:33N 44°02' E 034°22'1313.0
2015-Jul-27 10:33N 44°02' E 034°04'9212.9
2015-Jul-27 03:24N 44°02' E 031°55'1113.3
2015-Jul-27 02:33N 44°02' E 031°40'2713.4
2015-Jul-27 00:33N 44°02' E 031°02'1313.2
2015-Jul-26 23:33N 44°02' E 030°44'1313.2
2015-Jul-26 22:33N 44°02' E 030°26'1313.1
2015-Jul-26 21:33N 44°02' E 030°07'1313.2
2015-Jul-26 20:33N 44°01' E 029°49'  
2015-Jul-24 01:19N 44°13' E 029°00'910.3
2015-Jul-24 00:28N 44°09' E 029°11'1011.3
2015-Jul-23 23:33N 44°04' E 029°24'1110.9
2015-Jul-23 22:33N 44°02' E 029°39'1211.4
2015-Jul-23 21:33N 44°02' E 029°55'1211.6
2015-Jul-23 20:33N 44°02' E 030°11'3511.4
2015-Jul-23 17:29N 44°02' E 030°60'3311.1
2015-Jul-23 14:34N 44°02' E 031°45'9012.1
2015-Jul-23 07:08N 44°02' E 033°50'912.4
2015-Jul-23 06:24N 44°02' E 034°03'1012.2
2015-Jul-23 05:33N 44°02' E 034°17'1212.1
2015-Jul-23 04:33N 44°02' E 034°34'1212.2
2015-Jul-23 03:33N 44°02' E 034°51'1212.5
2015-Jul-23 02:33N 44°02' E 035°08'122 3.3
2015-Jul-21 13:04N 44°41' E 037°50'3 5.7
2015-Jul-21 12:33N 44°38' E 037°52'8 8.0
2015-Jul-21 11:33N 44°30' E 037°51'8 8.1
2015-Jul-21 10:33N 44°22' E 037°49'0 0.2
2015-Jul-21 09:21N 44°22' E 037°49'0 0.5
2015-Jul-21 08:31N 44°23' E 037°49'4 0.4
2015-Jul-20 23:33N 44°25' E 037°53'0 0.2
2015-Jul-20 22:33N 44°25' E 037°53'0 0.3
2015-Jul-20 21:33N 44°25' E 037°52'0 0.4
2015-Jul-20 20:33N 44°25' E 037°52'0 0.3
2015-Jul-20 19:33N 44°25' E 037°51'0 0.4
2015-Jul-20 18:33N 44°25' E 037°51'0 0.5
2015-Jul-20 17:34N 44°25' E 037°50'1 0.5
2015-Jul-20 16:23N 44°25' E 037°50'0 0.4
2015-Jul-20 15:34N 44°25' E 037°49'0 0.4
2015-Jul-20 14:34N 44°25' E 037°49'0 0.4
2015-Jul-20 13:33N 44°24' E 037°49'1 0.6
2015-Jul-20 12:34N 44°24' E 037°49'5 5.1
2015-Jul-20 11:34N 44°22' E 037°42'10 9.9
2015-Jul-20 10:34N 44°20' E 037°28'  
Track history (hours):
 
Tides and Currents Weather Stations Pressure Air Temp Water Temp Dewpoint Dewpoint Depression Visibility Wind Speed Wind Dir Waves Ship Positions

Ce_breeze

Last reported at 2015-Jul-30 10:25 UTC. Time now 2015-Jul-31 19:30 UTC.
Position N 42°56' E 033°19'.

Length 240 m; draft 12.7 m.

Type: Tanker. MMSI: 636010400.

Date/timePositionNaut miles runAvg speedWind from/ knotsBaromVisibWave heightAir tempDewpointWater temp
2015-Jul-30 10:25N 42°56' E 033°19'4611.9
2015-Jul-30 06:33N 43°17' E 034°16'1212.1
2015-Jul-30 05:33N 43°22' E 034°31'1212.2
2015-Jul-30 04:33N 43°28' E 034°45'1212.3
2015-Jul-30 03:33N 43°33' E 035°01'1212.4
2015-Jul-30 02:33N 43°39' E 035°16'1111.3
2015-Jul-30 01:33N 43°44' E 035°30'1111.2
2015-Jul-30 00:33N 43°48' E 035°44'9 9.3
2015-Jul-29 23:33N 43°52' E 035°56'1 1.1
2015-Jul-29 22:33N 43°52' E 035°57'1 0.8
2015-Jul-29 21:14N 43°53' E 035°59'1 0.8
2015-Jul-29 20:28N 43°53' E 035°59'1 0.7
2015-Jul-29 19:33N 43°54' E 035°60'1 0.6
2015-Jul-29 18:33N 43°54' E 036°00'0 0.5
2015-Jul-29 17:33N 43°55' E 036°01'0 0.3
2015-Jul-29 16:33N 43°55' E 036°01'0 0.3
2015-Jul-29 15:33N 43°55' E 036°01'0 0.2
2015-Jul-29 14:33N 43°56' E 036°01'14 6.5
2015-Jul-29 12:26N 44°02' E 036°18'1311.9
2015-Jul-29 11:19N 44°08' E 036°34'911.9
2015-Jul-29 10:33N 44°12' E 036°46'1212.0
2015-Jul-29 09:33N 44°17' E 037°01'1211.7
2015-Jul-29 08:34N 44°23' E 037°15'1111.4
2015-Jul-29 07:34N 44°28' E 037°29'1111.3
2015-Jul-29 06:34N 44°33' E 037°43'8 8.4
2015-Jul-29 05:34N 44°40' E 037°51'3 2.7
2015-Jul-29 04:34N 44°42' E 037°50'0 0.0
2015-Jul-29 03:31N 44°42' E 037°50'0 0.0
2015-Jul-29 02:31N 44°42' E 037°50'0 0.0
2015-Jul-29 01:31N 44°42' E 037°50'0 0.0
2015-Jul-29 00:31N 44°42' E 037°50'0 0.0
2015-Jul-28 23:31N 44°42' E 037°50'0 0.0
2015-Jul-28 22:31N 44°42' E 037°50'0 0.0
2015-Jul-28 21:31N 44°42' E 037°50'0 0.0
2015-Jul-28 20:25N 44°42' E 037°50'0 0.0
2015-Jul-28 19:31N 44°42' E 037°50'0 0.0
2015-Jul-28 18:31N 44°42' E 037°50'0 0.0
2015-Jul-28 17:31N 44°42' E 037°50'0 0.0
2015-Jul-28 16:31N 44°42' E 037°50'0 0.0
2015-Jul-28 15:31N 44°42' E 037°50'0 0.0
2015-Jul-28 14:31N 44°42' E 037°50'0 0.0
2015-Jul-28 13:31N 44°42' E 037°50'0 0.0
2015-Jul-28 12:31N 44°42' E 037°50'0 0.0
2015-Jul-28 11:31N 44°42' E 037°50'0 0.0
2015-Jul-28 10:31N 44°42' E 037°50'0 0.0
2015-Jul-28 09:31N 44°42' E 037°50'0 0.0
2015-Jul-28 08:28N 44°42' E 037°50'0 0.0
2015-Jul-28 07:28N 44°42' E 037°50'0 0.0
2015-Jul-28 06:28N 44°42' E 037°50'0 0.0
2015-Jul-28 05:31N 44°42' E 037°50'0 0.0
2015-Jul-28 04:33N 44°42' E 037°50'5 5.0
2015-Jul-28 03:33N 44°38' E 037°52'8 8.3
2015-Jul-28 02:33N 44°31' E 037°44'10 9.8
2015-Jul-28 01:32N 44°26' E 037°32'1212.5
2015-Jul-28 00:33N 44°20' E 037°17'1312.8
2015-Jul-27 23:33N 44°14' E 037°01'1312.7
2015-Jul-27 22:34N 44°08' E 036°46'1412.5
2015-Jul-27 21:27N 44°02' E 036°28'1112.0
2015-Jul-27 20:33N 44°02' E 036°14'1211.8
2015-Jul-27 19:33N 44°02' E 035°57'7 7.4
2015-Jul-27 18:33N 44°02' E 035°47'11 3.6
2015-Jul-27 15:33N 44°02' E 035°32'1312.8
2015-Jul-27 14:33N 44°02' E 035°14'1312.6
2015-Jul-27 13:33N 44°02' E 034°57'1212.4
2015-Jul-27 12:33N 44°02' E 034°39'1312.7
2015-Jul-27 11:33N 44°02' E 034°22'1313.0
2015-Jul-27 10:33N 44°02' E 034°04'9212.9
2015-Jul-27 03:24N 44°02' E 031°55'1113.3
2015-Jul-27 02:33N 44°02' E 031°40'2713.4
2015-Jul-27 00:33N 44°02' E 031°02'1313.2
2015-Jul-26 23:33N 44°02' E 030°44'1313.2
2015-Jul-26 22:33N 44°02' E 030°26'1313.1
2015-Jul-26 21:33N 44°02' E 030°07'1313.2
2015-Jul-26 20:33N 44°01' E 029°49'  
2015-Jul-24 01:19N 44°13' E 029°00'910.3
2015-Jul-24 00:28N 44°09' E 029°11'1011.3
2015-Jul-23 23:33N 44°04' E 029°24'1110.9
2015-Jul-23 22:33N 44°02' E 029°39'1211.4
2015-Jul-23 21:33N 44°02' E 029°55'1211.6
2015-Jul-23 20:33N 44°02' E 030°11'3511.4
2015-Jul-23 17:29N 44°02' E 030°60'3311.1
2015-Jul-23 14:34N 44°02' E 031°45'9012.1
2015-Jul-23 07:08N 44°02' E 033°50'912.4
2015-Jul-23 06:24N 44°02' E 034°03'1012.2
2015-Jul-23 05:33N 44°02' E 034°17'1212.1
2015-Jul-23 04:33N 44°02' E 034°34'1212.2
2015-Jul-23 03:33N 44°02' E 034°51'1212.5
2015-Jul-23 02:33N 44°02' E 035°08'122 3.3
2015-Jul-21 13:04N 44°41' E 037°50'3 5.7
2015-Jul-21 12:33N 44°38' E 037°52'8 8.0
2015-Jul-21 11:33N 44°30' E 037°51'8 8.1
2015-Jul-21 10:33N 44°22' E 037°49'0 0.2
2015-Jul-21 09:21N 44°22' E 037°49'0 0.5
2015-Jul-21 08:31N 44°23' E 037°49'4 0.4
2015-Jul-20 23:33N 44°25' E 037°53'0 0.2
2015-Jul-20 22:33N 44°25' E 037°53'0 0.3
2015-Jul-20 21:33N 44°25' E 037°52'0 0.4
2015-Jul-20 20:33N 44°25' E 037°52'0 0.3
2015-Jul-20 19:33N 44°25' E 037°51'0 0.4
2015-Jul-20 18:33N 44°25' E 037°51'0 0.5
2015-Jul-20 17:34N 44°25' E 037°50'1 0.5
2015-Jul-20 16:23N 44°25' E 037°50'0 0.4
2015-Jul-20 15:34N 44°25' E 037°49'0 0.4
2015-Jul-20 14:34N 44°25' E 037°49'0 0.4
2015-Jul-20 13:33N 44°24' E 037°49'1 0.6
2015-Jul-20 12:34N 44°24' E 037°49'5 5.1
2015-Jul-20 11:34N 44°22' E 037°42'10 9.9
2015-Jul-20 10:34N 44°20' E 037°28'  

Dump ship's entire track history